Schedule Details

Flight Number: ASX104X
Departure: London-Stansted (EGSS) at 10:30Z
Arrival: Warszawa Chopina (EPWA) at 13:00Z

Weather Information
EGSS 210950Z AUTO 32010KT 9999 BKN037 15/05 Q1025
EPWA 211000Z 22011KT CAVOK 29/14 Q1010 NOSIG

Schedule Frequency

Route Map